createdAt,value
2019-05-09T00:00:25.137Z,11.81
2019-05-09T00:02:54.751Z,11.80
2019-05-09T00:05:25.432Z,11.77
2019-05-09T00:07:55.203Z,11.77
2019-05-09T00:10:38.515Z,11.73
2019-05-09T00:12:56.225Z,11.71
2019-05-09T00:15:25.960Z,11.70
2019-05-09T00:17:55.580Z,11.71
2019-05-09T00:20:26.920Z,11.72
2019-05-09T00:22:56.549Z,11.71
2019-05-09T00:25:26.183Z,11.70
2019-05-09T00:27:55.843Z,11.66
2019-05-09T00:30:43.750Z,11.64
2019-05-09T00:33:15.012Z,11.63
2019-05-09T00:35:45.017Z,11.62
2019-05-09T00:38:14.615Z,11.60
2019-05-09T00:40:55.257Z,11.57
2019-05-09T00:43:16.105Z,11.57
2019-05-09T00:46:04.247Z,11.57
2019-05-09T00:48:50.814Z,11.56
2019-05-09T00:51:20.548Z,11.54
2019-05-09T00:53:50.258Z,11.53
2019-05-09T00:56:19.881Z,11.54
2019-05-09T00:58:49.550Z,11.53
2019-05-09T01:01:19.460Z,11.52
2019-05-09T01:03:49.094Z,11.48
2019-05-09T01:06:18.959Z,11.48
2019-05-09T01:08:48.580Z,11.46
2019-05-09T01:11:18.213Z,11.44
2019-05-09T01:13:47.879Z,11.44
2019-05-09T01:16:17.509Z,11.44
2019-05-09T01:18:47.120Z,11.43
2019-05-09T01:21:16.846Z,11.40
2019-05-09T01:23:46.453Z,11.39
2019-05-09T01:26:16.260Z,11.38
2019-05-09T01:28:47.788Z,11.35
2019-05-09T01:31:17.488Z,11.34
2019-05-09T01:33:54.964Z,11.34
2019-05-09T01:36:26.231Z,11.31
2019-05-09T01:38:56.687Z,11.30
2019-05-09T01:41:30.764Z,11.30
2019-05-09T01:43:57.689Z,11.26
2019-05-09T01:46:27.698Z,11.25
2019-05-09T01:48:57.360Z,11.22
2019-05-09T01:51:26.983Z,11.20
2019-05-09T01:53:56.616Z,11.18
2019-05-09T01:56:26.305Z,11.15
2019-05-09T01:58:55.935Z,11.14
2019-05-09T02:01:25.551Z,11.13
2019-05-09T02:03:55.289Z,11.11
2019-05-09T02:06:25.211Z,11.12
2019-05-09T02:08:54.842Z,11.11
2019-05-09T02:11:38.432Z,11.11
2019-05-09T02:13:56.086Z,11.11
2019-05-09T02:16:37.139Z,11.10
2019-05-09T02:19:08.421Z,11.11
2019-05-09T02:21:43.568Z,11.09
2019-05-09T02:24:14.219Z,11.10
2019-05-09T02:26:44.064Z,11.09
2019-05-09T02:29:14.003Z,11.08
2019-05-09T02:31:44.730Z,11.09
2019-05-09T02:34:15.171Z,11.09
2019-05-09T02:36:45.074Z,11.08
2019-05-09T02:39:14.764Z,11.07
2019-05-09T02:41:59.804Z,11.06
2019-05-09T02:44:15.746Z,11.06
2019-05-09T02:46:59.118Z,11.06
2019-05-09T02:49:29.126Z,11.04
2019-05-09T02:51:59.629Z,11.04
2019-05-09T02:54:30.175Z,11.02
2019-05-09T02:56:59.853Z,11.00
2019-05-09T02:59:34.003Z,11.00
2019-05-09T03:02:14.240Z,10.99
2019-05-09T03:04:43.878Z,10.98
2019-05-09T03:07:13.486Z,10.99
2019-05-09T03:09:43.144Z,11.00
2019-05-09T03:12:26.734Z,11.00
2019-05-09T03:14:44.159Z,10.99
2019-05-09T03:17:13.966Z,10.99
2019-05-09T03:19:43.634Z,10.97
2019-05-09T03:22:18.741Z,10.96
2019-05-09T03:24:48.855Z,10.94
2019-05-09T03:27:21.991Z,10.95
2019-05-09T03:29:53.254Z,10.95
2019-05-09T03:32:23.026Z,10.92
2019-05-09T03:34:52.656Z,10.92
2019-05-09T03:37:22.285Z,10.90
2019-05-09T03:39:52.008Z,10.90
2019-05-09T03:42:36.461Z,10.92
2019-05-09T03:44:54.362Z,10.94
2019-05-09T03:47:27.599Z,10.96
2019-05-09T03:50:10.764Z,10.98
2019-05-09T03:52:40.496Z,10.98
2019-05-09T03:55:12.388Z,11.01
2019-05-09T03:57:47.657Z,11.02
2019-05-09T04:00:18.110Z,11.01
2019-05-09T04:02:48.539Z,11.03
2019-05-09T04:05:18.303Z,11.03
2019-05-09T04:07:48.594Z,11.07
2019-05-09T04:10:18.918Z,11.09
2019-05-09T04:12:56.245Z,11.11
2019-05-09T04:15:20.199Z,11.14
2019-05-09T04:17:49.829Z,11.18
2019-05-09T04:20:19.540Z,11.22
2019-05-09T04:22:49.326Z,11.27
2019-05-09T04:25:21.200Z,11.30
2019-05-09T04:27:52.504Z,11.37
2019-05-09T04:30:22.192Z,11.41
2019-05-09T04:32:51.813Z,11.44
2019-05-09T04:35:21.570Z,11.45
2019-05-09T04:37:51.210Z,11.49
2019-05-09T04:40:20.850Z,11.49
2019-05-09T04:42:50.515Z,11.54
2019-05-09T04:45:24.442Z,11.59
2019-05-09T04:47:57.742Z,11.61
2019-05-09T04:50:27.999Z,11.63
2019-05-09T04:52:58.272Z,11.64
2019-05-09T04:55:29.541Z,11.63
2019-05-09T04:58:00.167Z,11.66
2019-05-09T05:00:48.054Z,11.68
2019-05-09T05:03:18.388Z,11.71
2019-05-09T05:05:48.277Z,11.76
2019-05-09T05:08:18.276Z,11.78
2019-05-09T05:10:47.958Z,11.81
2019-05-09T05:13:26.453Z,11.84
2019-05-09T05:15:48.907Z,11.87
2019-05-09T05:18:20.312Z,11.90
2019-05-09T05:20:49.974Z,11.95
2019-05-09T05:23:21.258Z,11.97
2019-05-09T05:25:50.966Z,11.98
2019-05-09T05:28:20.614Z,12.01
2019-05-09T05:30:50.241Z,12.05
2019-05-09T05:33:39.603Z,12.07
2019-05-09T05:36:10.859Z,12.06
2019-05-09T05:38:40.661Z,12.04
2019-05-09T05:41:11.293Z,12.03
2019-05-09T05:43:44.735Z,12.07
2019-05-09T05:46:30.571Z,12.08
2019-05-09T05:49:00.341Z,12.08
2019-05-09T05:51:31.749Z,12.12
2019-05-09T05:54:01.888Z,12.18
2019-05-09T05:56:31.514Z,12.21
2019-05-09T05:59:01.236Z,12.25
2019-05-09T06:01:31.294Z,12.29
2019-05-09T06:04:00.947Z,12.33
2019-05-09T06:06:37.512Z,12.37
2019-05-09T06:09:08.470Z,12.38
2019-05-09T06:11:38.474Z,12.39
2019-05-09T06:14:11.603Z,12.40
2019-05-09T06:16:39.739Z,12.43
2019-05-09T06:19:18.009Z,12.45
2019-05-09T06:21:52.203Z,12.49
2019-05-09T06:24:20.443Z,12.52
2019-05-09T06:26:50.288Z,12.56
2019-05-09T06:29:20.563Z,12.60
2019-05-09T06:31:50.282Z,12.64
2019-05-09T06:34:19.931Z,12.70
2019-05-09T06:36:49.691Z,12.75
2019-05-09T06:39:19.408Z,12.79
2019-05-09T06:41:49.042Z,12.82
2019-05-09T06:44:32.977Z,12.86
2019-05-09T06:47:04.287Z,12.86
2019-05-09T06:49:41.300Z,12.90
2019-05-09T06:52:11.020Z,12.92
2019-05-09T06:54:41.927Z,13.00
2019-05-09T06:57:11.871Z,13.05
2019-05-09T06:59:41.503Z,13.07
2019-05-09T07:02:19.066Z,13.08
2019-05-09T07:04:50.345Z,13.12
2019-05-09T07:07:21.635Z,13.18
2019-05-09T07:09:53.091Z,13.22
2019-05-09T07:12:23.043Z,13.28
2019-05-09T07:14:52.720Z,13.32
2019-05-09T07:17:22.776Z,13.35
2019-05-09T07:19:52.418Z,13.40
2019-05-09T07:22:28.089Z,13.44
2019-05-09T07:25:06.770Z,13.47
2019-05-09T07:27:32.795Z,13.52
2019-05-09T07:30:07.693Z,13.50
2019-05-09T07:32:39.159Z,13.53
2019-05-09T07:35:09.771Z,13.56
2019-05-09T07:37:39.458Z,13.57
2019-05-09T07:40:09.155Z,13.58
2019-05-09T07:42:39.723Z,13.56
2019-05-09T07:45:09.675Z,13.54
2019-05-09T07:47:39.317Z,13.56
2019-05-09T07:50:09.122Z,13.59
2019-05-09T07:52:39.052Z,13.63
2019-05-09T07:55:09.123Z,13.66
2019-05-09T07:57:46.407Z,13.69
2019-05-09T08:00:11.652Z,13.73
2019-05-09T08:02:41.779Z,13.74
2019-05-09T08:05:17.425Z,13.77
2019-05-09T08:07:48.559Z,13.80
2019-05-09T08:10:18.371Z,13.81
2019-05-09T08:12:48.168Z,13.83
2019-05-09T08:15:20.318Z,13.89
2019-05-09T08:17:49.837Z,13.91
2019-05-09T08:20:20.843Z,13.93
2019-05-09T08:22:57.923Z,13.97
2019-05-09T08:25:22.136Z,14.01
2019-05-09T08:27:52.350Z,14.04
2019-05-09T08:30:22.386Z,14.08
2019-05-09T08:32:52.158Z,14.14
2019-05-09T08:35:21.888Z,14.22
2019-05-09T08:37:51.682Z,14.33
2019-05-09T08:40:23.067Z,14.44
2019-05-09T08:42:52.800Z,14.50
2019-05-09T08:45:27.756Z,14.58
2019-05-09T08:47:54.203Z,14.67
2019-05-09T08:50:38.939Z,14.75
2019-05-09T08:53:09.253Z,14.78
2019-05-09T08:55:47.354Z,14.85
2019-05-09T08:58:14.637Z,14.92
2019-05-09T09:00:44.760Z,14.96
2019-05-09T09:03:15.095Z,15.05
2019-05-09T09:05:44.847Z,15.12
2019-05-09T09:08:14.626Z,15.18
2019-05-09T09:10:44.412Z,15.26
2019-05-09T09:13:14.118Z,15.33
2019-05-09T09:16:05.458Z,15.37
2019-05-09T09:18:17.851Z,15.40
2019-05-09T09:20:48.609Z,15.45
2019-05-09T09:23:19.339Z,15.51
2019-05-09T09:25:49.067Z,15.57
2019-05-09T09:28:18.980Z,15.61
2019-05-09T09:30:51.609Z,15.65
2019-05-09T09:33:21.305Z,15.66
2019-05-09T09:35:50.992Z,15.69
2019-05-09T09:38:20.809Z,15.74
2019-05-09T09:40:50.498Z,15.78
2019-05-09T09:43:20.203Z,15.74
2019-05-09T09:46:06.222Z,15.74
2019-05-09T09:48:21.212Z,15.78
2019-05-09T09:50:51.872Z,15.85
2019-05-09T09:53:23.211Z,15.87
2019-05-09T09:55:52.907Z,15.90
2019-05-09T09:58:22.794Z,15.95
2019-05-09T10:01:09.248Z,15.99
2019-05-09T10:03:40.006Z,16.05
2019-05-09T10:06:09.699Z,16.06
2019-05-09T10:08:40.329Z,16.09
2019-05-09T10:11:10.407Z,16.14
2019-05-09T10:13:40.110Z,16.16
2019-05-09T10:16:29.215Z,16.20
2019-05-09T10:18:57.853Z,16.17
2019-05-09T10:21:35.147Z,16.17
2019-05-09T10:24:07.461Z,16.20
2019-05-09T10:26:39.082Z,16.28
2019-05-09T10:29:08.935Z,16.39
2019-05-09T10:31:39.310Z,16.49
2019-05-09T10:34:12.197Z,16.47
2019-05-09T10:36:41.905Z,16.47
2019-05-09T10:39:11.583Z,16.52
2019-05-09T10:41:41.296Z,16.58
2019-05-09T10:44:18.159Z,16.63
2019-05-09T10:46:57.173Z,16.74
2019-05-09T10:49:20.989Z,16.80
2019-05-09T10:51:51.212Z,16.84
2019-05-09T10:54:21.000Z,16.86
2019-05-09T10:56:50.705Z,16.90
2019-05-09T10:59:20.448Z,16.94
2019-05-09T11:01:50.291Z,17.01
2019-05-09T11:04:21.598Z,17.10
2019-05-09T11:06:51.304Z,17.12
2019-05-09T11:09:21.045Z,17.03
2019-05-09T11:11:52.303Z,16.96
2019-05-09T11:14:36.155Z,16.93
2019-05-09T11:17:06.671Z,16.97
2019-05-09T11:19:24.868Z,16.97
2019-05-09T11:21:54.789Z,16.89
2019-05-09T11:24:40.529Z,16.84
2019-05-09T11:26:58.701Z,16.80
2019-05-09T11:29:29.219Z,16.75
2019-05-09T11:31:58.921Z,16.73
2019-05-09T11:34:28.570Z,16.76
2019-05-09T11:36:58.334Z,16.82
2019-05-09T11:39:36.602Z,16.82
2019-05-09T11:41:59.461Z,16.82
2019-05-09T11:44:29.210Z,16.85
2019-05-09T11:46:59.501Z,16.84
2019-05-09T11:49:29.615Z,16.88
2019-05-09T11:51:59.583Z,16.91
2019-05-09T11:54:32.985Z,16.90
2019-05-09T11:57:02.686Z,16.90
2019-05-09T11:59:32.554Z,16.90
2019-05-09T12:02:02.489Z,16.97
2019-05-09T12:04:32.748Z,16.96
2019-05-09T12:07:02.664Z,17.05
2019-05-09T12:09:48.938Z,17.12
2019-05-09T12:12:19.742Z,17.22
2019-05-09T12:14:49.732Z,17.36
2019-05-09T12:17:19.887Z,17.40
2019-05-09T12:19:49.734Z,17.33
2019-05-09T12:22:20.936Z,17.29
2019-05-09T12:24:53.755Z,17.27
2019-05-09T12:27:22.253Z,17.30
2019-05-09T12:29:51.830Z,17.36
2019-05-09T12:32:46.739Z,17.36
2019-05-09T12:34:57.822Z,17.34
2019-05-09T12:37:28.217Z,17.28
2019-05-09T12:39:58.684Z,17.22
2019-05-09T12:42:29.373Z,17.17
2019-05-09T12:45:02.034Z,17.14
2019-05-09T12:47:33.320Z,17.13
2019-05-09T12:50:03.288Z,17.13
2019-05-09T12:52:33.075Z,17.11
2019-05-09T12:55:02.779Z,17.13
2019-05-09T12:57:32.960Z,17.10
2019-05-09T13:00:02.931Z,17.10
2019-05-09T13:02:33.846Z,17.16
2019-05-09T13:05:04.683Z,17.24
2019-05-09T13:07:34.428Z,17.36
2019-05-09T13:10:05.298Z,17.35
2019-05-09T13:12:38.559Z,17.32
2019-05-09T13:15:08.917Z,17.33
2019-05-09T13:17:43.252Z,17.36
2019-05-09T13:20:14.490Z,17.44
2019-05-09T13:22:47.728Z,17.48
2019-05-09T13:25:18.856Z,17.53
2019-05-09T13:27:52.535Z,17.49
2019-05-09T13:30:20.002Z,17.48
2019-05-09T13:32:50.273Z,17.43
2019-05-09T13:35:20.240Z,17.41
2019-05-09T13:37:50.501Z,17.37
2019-05-09T13:40:20.414Z,17.27
2019-05-09T13:42:50.212Z,17.14
2019-05-09T13:45:20.257Z,17.03
2019-05-09T13:47:49.963Z,16.95
2019-05-09T13:50:19.589Z,16.93
2019-05-09T13:52:49.694Z,16.95
2019-05-09T13:55:19.467Z,16.99
2019-05-09T13:57:49.212Z,16.97
2019-05-09T14:00:19.427Z,16.93
2019-05-09T14:02:49.539Z,16.89
2019-05-09T14:05:19.445Z,16.84
2019-05-09T14:07:53.859Z,16.77
2019-05-09T14:10:20.654Z,16.77
2019-05-09T14:13:05.856Z,16.80
2019-05-09T14:15:22.240Z,16.83
2019-05-09T14:17:53.892Z,16.82
2019-05-09T14:20:23.358Z,16.75
2019-05-09T14:22:53.361Z,16.71
2019-05-09T14:25:23.264Z,16.70
2019-05-09T14:27:52.907Z,16.73
2019-05-09T14:30:22.696Z,16.76
2019-05-09T14:32:52.550Z,16.76
2019-05-09T14:35:22.239Z,16.78
2019-05-09T14:37:51.872Z,16.76
2019-05-09T14:40:21.718Z,16.66
2019-05-09T14:42:51.427Z,16.67
2019-05-09T14:45:21.185Z,16.71
2019-05-09T14:47:50.923Z,16.72
2019-05-09T14:50:20.581Z,16.68
2019-05-09T14:52:50.747Z,16.58
2019-05-09T14:55:20.503Z,16.45
2019-05-09T14:57:50.249Z,16.45
2019-05-09T15:00:20.287Z,16.45
2019-05-09T15:02:49.965Z,16.37
2019-05-09T15:05:19.893Z,16.31
2019-05-09T15:07:49.529Z,16.25
2019-05-09T15:10:19.299Z,16.15
2019-05-09T15:12:49.061Z,16.15
2019-05-09T15:15:19.013Z,16.18
2019-05-09T15:17:49.540Z,16.10
2019-05-09T15:20:19.791Z,16.08
2019-05-09T15:22:49.533Z,16.05
2019-05-09T15:25:20.816Z,16.04
2019-05-09T15:27:50.940Z,15.96
2019-05-09T15:30:21.310Z,15.91
2019-05-09T15:32:52.034Z,15.76
2019-05-09T15:35:22.337Z,15.59
2019-05-09T15:37:51.997Z,15.43
2019-05-09T15:40:21.955Z,15.31
2019-05-09T15:42:52.336Z,15.33
2019-05-09T15:45:22.408Z,15.41
2019-05-09T15:47:52.083Z,15.36
2019-05-09T15:50:23.286Z,15.33
2019-05-09T15:52:53.700Z,15.36
2019-05-09T15:55:23.481Z,15.38
2019-05-09T15:57:53.183Z,15.26
2019-05-09T16:00:22.895Z,15.06
2019-05-09T16:02:53.248Z,15.09
2019-05-09T16:05:24.899Z,15.11
2019-05-09T16:07:54.569Z,15.07
2019-05-09T16:10:24.266Z,15.00
2019-05-09T16:12:54.897Z,14.94
2019-05-09T16:15:24.665Z,14.93
2019-05-09T16:17:54.361Z,14.92
2019-05-09T16:20:37.074Z,14.96
2019-05-09T16:22:57.203Z,14.95
2019-05-09T16:25:28.275Z,14.94
2019-05-09T16:27:59.963Z,15.02
2019-05-09T16:30:29.667Z,15.03
2019-05-09T16:32:59.335Z,15.05
2019-05-09T16:35:29.006Z,15.00
2019-05-09T16:38:06.429Z,14.85
2019-05-09T16:40:30.925Z,14.80
2019-05-09T16:43:00.590Z,14.78
2019-05-09T16:45:30.215Z,14.80
2019-05-09T16:48:02.333Z,14.86
2019-05-09T16:50:32.096Z,14.94
2019-05-09T16:53:01.825Z,15.02
2019-05-09T16:55:37.970Z,15.04
2019-05-09T16:58:08.613Z,15.04
2019-05-09T17:00:41.366Z,15.02
2019-05-09T17:03:11.010Z,14.92
2019-05-09T17:05:40.793Z,14.93
2019-05-09T17:08:10.526Z,14.94
2019-05-09T17:10:40.168Z,14.85
2019-05-09T17:13:09.877Z,14.78
2019-05-09T17:15:39.595Z,14.78
2019-05-09T17:18:10.088Z,14.79
2019-05-09T17:20:41.489Z,14.85
2019-05-09T17:23:15.087Z,14.92
2019-05-09T17:25:47.923Z,14.93
2019-05-09T17:28:17.966Z,14.97
2019-05-09T17:30:49.307Z,15.01
2019-05-09T17:33:19.614Z,15.02
2019-05-09T17:35:49.429Z,15.01
2019-05-09T17:38:19.107Z,14.98
2019-05-09T17:40:48.762Z,14.92
2019-05-09T17:43:18.983Z,14.88
2019-05-09T17:45:49.422Z,14.92
2019-05-09T17:48:19.055Z,14.95
2019-05-09T17:50:48.706Z,14.95
2019-05-09T17:53:18.495Z,14.94
2019-05-09T17:55:49.645Z,14.85
2019-05-09T17:58:29.777Z,14.86
2019-05-09T18:00:50.688Z,14.90
2019-05-09T18:03:20.602Z,14.93
2019-05-09T18:05:50.714Z,14.93
2019-05-09T18:08:21.475Z,14.93
2019-05-09T18:10:51.190Z,14.92
2019-05-09T18:13:23.895Z,14.94
2019-05-09T18:15:52.293Z,14.94
2019-05-09T18:18:21.922Z,14.95
2019-05-09T18:20:51.580Z,14.93
2019-05-09T18:23:21.435Z,14.91
2019-05-09T18:25:51.068Z,14.88
2019-05-09T18:28:20.852Z,14.88
2019-05-09T18:30:50.620Z,14.87
2019-05-09T18:33:30.704Z,14.86
2019-05-09T18:36:00.401Z,14.87
2019-05-09T18:38:32.927Z,14.88
2019-05-09T18:41:06.444Z,14.90
2019-05-09T18:43:34.329Z,14.88
2019-05-09T18:46:03.981Z,14.86
2019-05-09T18:48:34.841Z,14.82
2019-05-09T18:51:04.911Z,14.81
2019-05-09T18:53:35.514Z,14.80
2019-05-09T18:56:05.561Z,14.79
2019-05-09T18:58:36.070Z,14.79
2019-05-09T19:01:06.837Z,14.77
2019-05-09T19:03:37.148Z,14.75
2019-05-09T19:06:06.926Z,14.72
2019-05-09T19:08:37.361Z,14.71
2019-05-09T19:11:07.064Z,14.69
2019-05-09T19:13:36.817Z,14.66
2019-05-09T19:16:14.118Z,14.62
2019-05-09T19:18:48.355Z,14.60
2019-05-09T19:21:19.661Z,14.55
2019-05-09T19:23:49.292Z,14.51
2019-05-09T19:26:37.295Z,14.48
2019-05-09T19:29:09.405Z,14.47
2019-05-09T19:31:39.785Z,14.44
2019-05-09T19:34:12.681Z,14.37
2019-05-09T19:36:42.902Z,14.36
2019-05-09T19:39:12.703Z,14.35
2019-05-09T19:41:42.389Z,14.35
2019-05-09T19:44:12.025Z,14.32
2019-05-09T19:46:41.715Z,14.29
2019-05-09T19:49:11.540Z,14.27
2019-05-09T19:51:41.347Z,14.24
2019-05-09T19:54:11.372Z,14.21
2019-05-09T19:56:41.057Z,14.19
2019-05-09T19:59:11.362Z,14.15
2019-05-09T20:01:41.004Z,14.15
2019-05-09T20:04:10.795Z,14.15
2019-05-09T20:06:40.428Z,14.12
2019-05-09T20:09:11.781Z,14.12
2019-05-09T20:11:43.067Z,14.10
2019-05-09T20:14:23.267Z,14.11
2019-05-09T20:16:55.918Z,14.09
2019-05-09T20:19:25.875Z,14.09
2019-05-09T20:21:57.156Z,14.09
2019-05-09T20:24:26.891Z,14.10
2019-05-09T20:26:56.647Z,14.07
2019-05-09T20:29:26.361Z,14.06
2019-05-09T20:31:57.179Z,14.05
2019-05-09T20:34:26.818Z,14.02
2019-05-09T20:36:56.450Z,14.01
2019-05-09T20:39:26.342Z,14.03
2019-05-09T20:41:56.216Z,14.02
2019-05-09T20:44:26.060Z,14.00
2019-05-09T20:46:55.964Z,13.98
2019-05-09T20:49:25.818Z,13.90
2019-05-09T20:51:55.736Z,13.88
2019-05-09T20:54:25.606Z,13.88
2019-05-09T20:56:55.455Z,13.90
2019-05-09T20:59:25.325Z,13.88
2019-05-09T21:01:55.305Z,13.88
2019-05-09T21:04:25.123Z,13.86
2019-05-09T21:06:55.053Z,13.84
2019-05-09T21:09:24.915Z,13.84
2019-05-09T21:11:55.527Z,13.83
2019-05-09T21:14:25.394Z,13.83
2019-05-09T21:16:55.323Z,13.83
2019-05-09T21:19:25.141Z,13.82
2019-05-09T21:21:54.990Z,13.82
2019-05-09T21:24:25.673Z,13.80
2019-05-09T21:26:55.503Z,13.79
2019-05-09T21:29:26.485Z,13.77
2019-05-09T21:31:56.734Z,13.76
2019-05-09T21:34:27.325Z,13.75
2019-05-09T21:36:57.061Z,13.75
2019-05-09T21:39:27.024Z,13.74
2019-05-09T21:41:56.751Z,13.74
2019-05-09T21:44:26.479Z,13.73
2019-05-09T21:46:56.348Z,13.72
2019-05-09T21:49:30.845Z,13.71
2019-05-09T21:52:02.016Z,13.68
2019-05-09T21:54:31.825Z,13.65
2019-05-09T21:57:01.465Z,13.62
2019-05-09T21:59:31.112Z,13.57
2019-05-09T22:02:01.325Z,13.54
2019-05-09T22:04:31.108Z,13.52
2019-05-09T22:07:02.406Z,13.49
2019-05-09T22:09:32.468Z,13.47
2019-05-09T22:12:02.138Z,13.44
2019-05-09T22:14:31.803Z,13.40
2019-05-09T22:17:03.133Z,13.41
2019-05-09T22:19:32.778Z,13.39
2019-05-09T22:22:02.430Z,13.40
2019-05-09T22:24:32.125Z,13.37
2019-05-09T22:27:01.777Z,13.37
2019-05-09T22:29:31.441Z,13.37
2019-05-09T22:32:01.115Z,13.38
2019-05-09T22:34:30.759Z,13.39
2019-05-09T22:37:00.644Z,13.39
2019-05-09T22:39:30.326Z,13.40
2019-05-09T22:42:01.028Z,13.38
2019-05-09T22:44:30.652Z,13.37
2019-05-09T22:47:00.374Z,13.37
2019-05-09T22:49:30.060Z,13.35
2019-05-09T22:51:59.811Z,13.32
2019-05-09T22:54:29.603Z,13.25
2019-05-09T22:56:59.412Z,13.23
2019-05-09T22:59:29.533Z,13.22
2019-05-09T23:01:59.270Z,13.22
2019-05-09T23:04:29.380Z,13.22
2019-05-09T23:06:59.043Z,13.20
2019-05-09T23:09:28.821Z,13.21
2019-05-09T23:11:58.821Z,13.19
2019-05-09T23:14:28.805Z,13.21
2019-05-09T23:17:00.044Z,13.21
2019-05-09T23:19:29.715Z,13.19
2019-05-09T23:22:00.465Z,13.18
2019-05-09T23:24:34.270Z,13.18
2019-05-09T23:27:04.241Z,13.17
2019-05-09T23:29:34.055Z,13.17
2019-05-09T23:32:21.448Z,13.17
2019-05-09T23:34:51.094Z,13.16
2019-05-09T23:37:20.732Z,13.14
2019-05-09T23:39:52.922Z,13.13
2019-05-09T23:42:22.621Z,13.12
2019-05-09T23:44:52.275Z,13.11
2019-05-09T23:47:22.136Z,13.09
2019-05-09T23:49:51.785Z,13.10
2019-05-09T23:52:21.423Z,13.10
2019-05-09T23:55:09.296Z,13.11
2019-05-09T23:57:56.431Z,13.11
